DLH890 EDDF-EVRA
Flight info
| Callsign | DLH890 |
|---|---|
| Flight time | 1h 49m |
| Altitude | 31000 |
| Route | TOBAK8F TOBAK N858 FEDZA Y172 ETIDI/N0427F370 Y172 SISMI DCT ASMIG DCT RIMKO DCT FARCU DCT GORPI DCT ANFEV DCT DIPEB DCT NINTA DCT ADAXA DCT ORVIX |
| Aircraft | A320/M-SDE2E3FGIJ1LORWXYZ/HB1 |
Departure
| Time | 2026-05-05 13:41 |
|---|---|
| Airport | Frankfurt Main Airport (EDDF) |
Arrival
| Time | 2026-05-05 15:30 |
|---|---|
| Airport | Riga International Airport (EVRA) |
| Time | Latitude | Longitude | Altitude | Speed | Heading |
|---|---|---|---|---|---|
| 2026-05-05 13:24 | 50.04377 | 8.56972 | 360 ft | 0 kts | 159° |
| 2026-05-05 13:37 | 50.04371 | 8.56975 | 366 ft | 5 kts | 159° |
| 2026-05-05 13:38 | 50.04312 | 8.57019 | 366 ft | 11 kts | 131° |
| 2026-05-05 13:38 | 50.04325 | 8.57108 | 361 ft | 8 kts | 66° |
| 2026-05-05 13:38 | 50.04370 | 8.57296 | 365 ft | 30 kts | 69° |
| 2026-05-05 13:38 | 50.04449 | 8.57621 | 366 ft | 32 kts | 69° |
| 2026-05-05 13:39 | 50.04522 | 8.57931 | 366 ft | 15 kts | 71° |
| 2026-05-05 13:39 | 50.04528 | 8.58058 | 368 ft | 10 kts | 118° |
| 2026-05-05 13:39 | 50.04479 | 8.58096 | 368 ft | 7 kts | 169° |
| 2026-05-05 13:39 | 50.04439 | 8.58112 | 369 ft | 3 kts | 162° |
| 2026-05-05 13:40 | 50.04432 | 8.58115 | 368 ft | 3 kts | 162° |
| 2026-05-05 13:40 | 50.04358 | 8.58051 | 366 ft | 23 kts | 243° |
| 2026-05-05 13:40 | 50.04263 | 8.57656 | 364 ft | 69 kts | 250° |
| 2026-05-05 13:40 | 50.04021 | 8.56643 | 363 ft | 130 kts | 250° |
| 2026-05-05 13:41 | 50.03658 | 8.55109 | 564 ft | 158 kts | 249° |
| 2026-05-05 13:41 | 50.03266 | 8.53482 | 1170 ft | 165 kts | 248° |
| 2026-05-05 13:41 | 50.02849 | 8.51784 | 1749 ft | 175 kts | 250° |
| 2026-05-05 13:41 | 50.02699 | 8.49764 | 2051 ft | 203 kts | 275° |
| 2026-05-05 13:42 | 50.02885 | 8.47505 | 2533 ft | 223 kts | 276° |
| 2026-05-05 13:42 | 50.03082 | 8.45046 | 3401 ft | 228 kts | 275° |
| 2026-05-05 13:42 | 50.03423 | 8.42604 | 4299 ft | 236 kts | 293° |
| 2026-05-05 13:42 | 50.04505 | 8.40530 | 4827 ft | 264 kts | 322° |
| 2026-05-05 13:43 | 50.06011 | 8.38839 | 5589 ft | 275 kts | 322° |
| 2026-05-05 13:43 | 50.07572 | 8.37061 | 6525 ft | 280 kts | 322° |
| 2026-05-05 13:43 | 50.09153 | 8.35243 | 7423 ft | 285 kts | 324° |
| 2026-05-05 13:43 | 50.10947 | 8.33867 | 8286 ft | 291 kts | 342° |
| 2026-05-05 13:44 | 50.12953 | 8.33352 | 9152 ft | 295 kts | 0° |
| 2026-05-05 13:44 | 50.14990 | 8.33805 | 10035 ft | 299 kts | 17° |
| 2026-05-05 13:44 | 50.17018 | 8.34780 | 10611 ft | 316 kts | 18° |
| 2026-05-05 13:44 | 50.19196 | 8.35822 | 11042 ft | 335 kts | 18° |
| 2026-05-05 13:45 | 50.21455 | 8.36896 | 11727 ft | 343 kts | 17° |
| 2026-05-05 13:45 | 50.23754 | 8.37983 | 12459 ft | 347 kts | 17° |
| 2026-05-05 13:45 | 50.26083 | 8.39083 | 13229 ft | 352 kts | 17° |
| 2026-05-05 13:45 | 50.28384 | 8.40446 | 13909 ft | 356 kts | 27° |
| 2026-05-05 13:46 | 50.30493 | 8.42489 | 14532 ft | 359 kts | 39° |
| 2026-05-05 13:46 | 50.32390 | 8.45061 | 15153 ft | 363 kts | 43° |
| 2026-05-05 13:46 | 50.34290 | 8.47710 | 15773 ft | 368 kts | 43° |
| 2026-05-05 13:46 | 50.36214 | 8.50383 | 16374 ft | 373 kts | 43° |
| 2026-05-05 13:47 | 50.38168 | 8.53097 | 16986 ft | 377 kts | 43° |
| 2026-05-05 13:47 | 50.40143 | 8.55841 | 17610 ft | 382 kts | 43° |
| 2026-05-05 13:47 | 50.42144 | 8.58622 | 18203 ft | 386 kts | 43° |
| 2026-05-05 13:47 | 50.44162 | 8.61431 | 18734 ft | 390 kts | 43° |
| 2026-05-05 13:48 | 50.46215 | 8.64244 | 19283 ft | 393 kts | 41° |
| 2026-05-05 13:48 | 50.48314 | 8.67028 | 19840 ft | 396 kts | 41° |
| 2026-05-05 13:48 | 50.50442 | 8.69805 | 20387 ft | 400 kts | 40° |
| 2026-05-05 13:48 | 50.52596 | 8.72605 | 20958 ft | 403 kts | 40° |
| 2026-05-05 13:49 | 50.54762 | 8.75427 | 21506 ft | 406 kts | 41° |
| 2026-05-05 13:49 | 50.56781 | 8.78537 | 22057 ft | 408 kts | 51° |
| 2026-05-05 13:49 | 50.58437 | 8.82167 | 22603 ft | 409 kts | 62° |
| 2026-05-05 13:49 | 50.59795 | 8.86055 | 23137 ft | 412 kts | 63° |
| 2026-05-05 13:50 | 50.61169 | 8.90028 | 23630 ft | 415 kts | 63° |
| 2026-05-05 13:50 | 50.62557 | 8.94036 | 24058 ft | 419 kts | 63° |
| 2026-05-05 13:50 | 50.63958 | 8.98081 | 24480 ft | 422 kts | 63° |
| 2026-05-05 13:50 | 50.65369 | 9.02153 | 24886 ft | 425 kts | 63° |
| 2026-05-05 13:51 | 50.66793 | 9.06259 | 25287 ft | 429 kts | 63° |
| 2026-05-05 13:51 | 50.68226 | 9.10399 | 25687 ft | 432 kts | 63° |
| 2026-05-05 13:51 | 50.69664 | 9.14574 | 26069 ft | 435 kts | 64° |
| 2026-05-05 13:51 | 50.71113 | 9.18788 | 26448 ft | 438 kts | 64° |
| 2026-05-05 13:52 | 50.72560 | 9.23035 | 26816 ft | 441 kts | 64° |
| 2026-05-05 13:52 | 50.73965 | 9.27352 | 27178 ft | 443 kts | 65° |
| 2026-05-05 13:52 | 50.75340 | 9.31737 | 27541 ft | 446 kts | 66° |
| 2026-05-05 13:52 | 50.76698 | 9.36156 | 27898 ft | 449 kts | 66° |
| 2026-05-05 13:53 | 50.78064 | 9.40619 | 28228 ft | 452 kts | 66° |
| 2026-05-05 13:53 | 50.79446 | 9.45113 | 28509 ft | 457 kts | 66° |
| 2026-05-05 13:53 | 50.80847 | 9.49642 | 28838 ft | 460 kts | 66° |
| 2026-05-05 13:53 | 50.82267 | 9.54198 | 29150 ft | 463 kts | 66° |
| 2026-05-05 13:54 | 50.83214 | 9.57230 | 29357 ft | 465 kts | 66° |
| 2026-05-05 13:54 | 50.84650 | 9.61835 | 29680 ft | 468 kts | 66° |
| 2026-05-05 13:54 | 50.86089 | 9.66470 | 29974 ft | 471 kts | 66° |
| 2026-05-05 13:54 | 50.87536 | 9.71136 | 30227 ft | 473 kts | 66° |
| 2026-05-05 13:55 | 50.88990 | 9.75835 | 30493 ft | 475 kts | 66° |
| 2026-05-05 13:55 | 50.90442 | 9.80552 | 30732 ft | 477 kts | 66° |
| 2026-05-05 13:55 | 50.93289 | 9.89833 | 30820 ft | 453 kts | 66° |
| 2026-05-05 13:56 | 50.95999 | 9.98713 | 30818 ft | 445 kts | 66° |
| 2026-05-05 13:56 | 50.98682 | 10.07541 | 30819 ft | 444 kts | 66° |
| 2026-05-05 13:57 | 51.01361 | 10.16373 | 30821 ft | 444 kts | 67° |
| 2026-05-05 13:57 | 51.04025 | 10.25209 | 30820 ft | 444 kts | 67° |
| 2026-05-05 13:58 | 51.07059 | 10.33738 | 30822 ft | 446 kts | 51° |
| 2026-05-05 13:58 | 51.09254 | 10.37230 | 30817 ft | 447 kts | 39° |
| 2026-05-05 13:58 | 51.11774 | 10.40104 | 30820 ft | 446 kts | 31° |
| 2026-05-05 13:59 | 51.19564 | 10.48260 | 30812 ft | 447 kts | 33° |
| 2026-05-05 14:00 | 51.27343 | 10.56598 | 30886 ft | 456 kts | 32° |
| 2026-05-05 14:00 | 51.30003 | 10.59430 | 31022 ft | 464 kts | 32° |
| 2026-05-05 14:00 | 51.32710 | 10.62310 | 31163 ft | 470 kts | 32° |
| 2026-05-05 14:01 | 51.35454 | 10.65233 | 31292 ft | 477 kts | 32° |
| 2026-05-05 14:01 | 51.38217 | 10.68190 | 31509 ft | 480 kts | 33° |
| 2026-05-05 14:01 | 51.40954 | 10.71269 | 31833 ft | 481 kts | 34° |
| 2026-05-05 14:01 | 51.43643 | 10.74474 | 32183 ft | 481 kts | 36° |
| 2026-05-05 14:02 | 51.46294 | 10.77752 | 32548 ft | 480 kts | 37° |
| 2026-05-05 14:02 | 51.48925 | 10.81049 | 32910 ft | 480 kts | 37° |
| 2026-05-05 14:02 | 51.51559 | 10.84337 | 33282 ft | 479 kts | 37° |
| 2026-05-05 14:02 | 51.54050 | 10.87895 | 33646 ft | 480 kts | 45° |
| 2026-05-05 14:03 | 51.56358 | 10.91674 | 33951 ft | 481 kts | 44° |
| 2026-05-05 14:03 | 51.58711 | 10.95509 | 34226 ft | 481 kts | 44° |
| 2026-05-05 14:03 | 51.61063 | 10.99333 | 34503 ft | 481 kts | 44° |
| 2026-05-05 14:03 | 51.63415 | 11.03158 | 34793 ft | 481 kts | 44° |
| 2026-05-05 14:04 | 51.65763 | 11.06988 | 35077 ft | 480 kts | 44° |
| 2026-05-05 14:04 | 51.68104 | 11.10821 | 35397 ft | 480 kts | 45° |
| 2026-05-05 14:04 | 51.70445 | 11.14659 | 35675 ft | 479 kts | 45° |
| 2026-05-05 14:04 | 51.72780 | 11.18495 | 35933 ft | 479 kts | 45° |
| 2026-05-05 14:05 | 51.75107 | 11.22326 | 36185 ft | 478 kts | 44° |
| 2026-05-05 14:05 | 51.77433 | 11.26162 | 36460 ft | 478 kts | 44° |
| 2026-05-05 14:05 | 51.79755 | 11.29998 | 36709 ft | 477 kts | 44° |
| 2026-05-05 14:05 | 51.82075 | 11.33839 | 36863 ft | 477 kts | 44° |
| 2026-05-05 14:06 | 51.86705 | 11.41525 | 36859 ft | 476 kts | 44° |
| 2026-05-05 14:06 | 51.91321 | 11.49230 | 36859 ft | 476 kts | 45° |
| 2026-05-05 14:07 | 51.95908 | 11.56891 | 36878 ft | 476 kts | 44° |
| 2026-05-05 14:07 | 52.00688 | 11.64316 | 36858 ft | 476 kts | 40° |
| 2026-05-05 14:08 | 52.05612 | 11.71499 | 36852 ft | 476 kts | 40° |
| 2026-05-05 14:08 | 52.10520 | 11.78733 | 36857 ft | 476 kts | 41° |
| 2026-05-05 14:09 | 52.15367 | 11.86070 | 36858 ft | 476 kts | 41° |
| 2026-05-05 14:09 | 52.20201 | 11.93452 | 36868 ft | 475 kts | 41° |
| 2026-05-05 14:10 | 52.25026 | 12.00822 | 36878 ft | 475 kts | 41° |
| 2026-05-05 14:10 | 52.29858 | 12.08199 | 36866 ft | 475 kts | 41° |
| 2026-05-05 14:11 | 52.34652 | 12.15530 | 36869 ft | 475 kts | 41° |
| 2026-05-05 14:11 | 52.39463 | 12.22919 | 36891 ft | 474 kts | 40° |
| 2026-05-05 14:12 | 52.44271 | 12.30328 | 36885 ft | 474 kts | 41° |
| 2026-05-05 14:12 | 52.49064 | 12.37745 | 36881 ft | 473 kts | 41° |
| 2026-05-05 14:13 | 52.53847 | 12.45179 | 36890 ft | 473 kts | 41° |
| 2026-05-05 14:13 | 52.58629 | 12.52621 | 36884 ft | 473 kts | 41° |
| 2026-05-05 14:14 | 52.63403 | 12.60070 | 36906 ft | 472 kts | 41° |
| 2026-05-05 14:14 | 52.68163 | 12.67502 | 36891 ft | 471 kts | 38° |
| 2026-05-05 14:15 | 52.73351 | 12.74023 | 36891 ft | 468 kts | 33° |
| 2026-05-05 14:15 | 52.78581 | 12.80420 | 36889 ft | 468 kts | 33° |
| 2026-05-05 14:16 | 52.83800 | 12.86848 | 36885 ft | 468 kts | 33° |
| 2026-05-05 14:16 | 52.89014 | 12.93295 | 36889 ft | 467 kts | 33° |
| 2026-05-05 14:17 | 52.94223 | 12.99754 | 36891 ft | 468 kts | 33° |
| 2026-05-05 14:17 | 52.99431 | 13.06224 | 36891 ft | 468 kts | 33° |
| 2026-05-05 14:18 | 53.04611 | 13.12679 | 36919 ft | 468 kts | 33° |
| 2026-05-05 14:18 | 53.09813 | 13.19180 | 36911 ft | 467 kts | 34° |
| 2026-05-05 14:19 | 53.15005 | 13.25696 | 36901 ft | 467 kts | 34° |
| 2026-05-05 14:19 | 53.20190 | 13.32227 | 36906 ft | 467 kts | 34° |
| 2026-05-05 14:20 | 53.25376 | 13.38767 | 36923 ft | 467 kts | 34° |
| 2026-05-05 14:20 | 53.30563 | 13.45338 | 36892 ft | 468 kts | 34° |
| 2026-05-05 14:21 | 53.35758 | 13.51934 | 36889 ft | 469 kts | 34° |
| 2026-05-05 14:21 | 53.40960 | 13.58558 | 36896 ft | 469 kts | 34° |
| 2026-05-05 14:22 | 53.46156 | 13.65189 | 36900 ft | 470 kts | 34° |
| 2026-05-05 14:22 | 53.51358 | 13.71863 | 36905 ft | 471 kts | 34° |
| 2026-05-05 14:23 | 53.56563 | 13.78558 | 36900 ft | 471 kts | 34° |
| 2026-05-05 14:23 | 53.61736 | 13.85222 | 36897 ft | 472 kts | 34° |
| 2026-05-05 14:24 | 53.66949 | 13.91969 | 36901 ft | 472 kts | 34° |
| 2026-05-05 14:24 | 53.72157 | 13.98733 | 36926 ft | 472 kts | 34° |
| 2026-05-05 14:25 | 53.77360 | 14.05523 | 36916 ft | 473 kts | 34° |
| 2026-05-05 14:25 | 53.82564 | 14.12322 | 36911 ft | 473 kts | 34° |
| 2026-05-05 14:26 | 53.87768 | 14.19130 | 36910 ft | 473 kts | 34° |
| 2026-05-05 14:26 | 53.92955 | 14.26024 | 36935 ft | 473 kts | 35° |
| 2026-05-05 14:27 | 53.98067 | 14.33059 | 36933 ft | 473 kts | 36° |
| 2026-05-05 14:27 | 54.03162 | 14.40131 | 36916 ft | 473 kts | 36° |
| 2026-05-05 14:28 | 54.08231 | 14.47146 | 36918 ft | 473 kts | 36° |
| 2026-05-05 14:28 | 54.13346 | 14.54209 | 36941 ft | 473 kts | 36° |
| 2026-05-05 14:29 | 54.18460 | 14.61280 | 36943 ft | 472 kts | 36° |
| 2026-05-05 14:29 | 54.23561 | 14.68364 | 36935 ft | 473 kts | 36° |
| 2026-05-05 14:30 | 54.28648 | 14.75488 | 36938 ft | 473 kts | 36° |
| 2026-05-05 14:30 | 54.33737 | 14.82629 | 36938 ft | 473 kts | 36° |
| 2026-05-05 14:31 | 54.38832 | 14.89768 | 36953 ft | 473 kts | 36° |
| 2026-05-05 14:31 | 54.43909 | 14.96939 | 36947 ft | 473 kts | 36° |
| 2026-05-05 14:32 | 54.48979 | 15.04132 | 36943 ft | 473 kts | 36° |
| 2026-05-05 14:32 | 54.54056 | 15.11337 | 36941 ft | 473 kts | 36° |
| 2026-05-05 14:33 | 54.59130 | 15.18534 | 36971 ft | 473 kts | 37° |
| 2026-05-05 14:33 | 54.64187 | 15.25788 | 36935 ft | 472 kts | 37° |
| 2026-05-05 14:34 | 54.69213 | 15.32992 | 36944 ft | 473 kts | 37° |
| 2026-05-05 14:34 | 54.74280 | 15.40259 | 36939 ft | 473 kts | 37° |
| 2026-05-05 14:35 | 54.79330 | 15.47552 | 36935 ft | 473 kts | 37° |
| 2026-05-05 14:35 | 54.84370 | 15.54882 | 36949 ft | 473 kts | 37° |
| 2026-05-05 14:36 | 54.89404 | 15.62216 | 36954 ft | 472 kts | 37° |
| 2026-05-05 14:36 | 54.94219 | 15.70010 | 36949 ft | 474 kts | 43° |
| 2026-05-05 14:37 | 54.98837 | 15.78205 | 36943 ft | 474 kts | 43° |
| 2026-05-05 14:37 | 55.03443 | 15.86430 | 36941 ft | 474 kts | 43° |
| 2026-05-05 14:38 | 55.08048 | 15.94672 | 36939 ft | 474 kts | 43° |
| 2026-05-05 14:38 | 55.12645 | 16.02930 | 36935 ft | 474 kts | 43° |
| 2026-05-05 14:39 | 55.17238 | 16.11212 | 36938 ft | 474 kts | 43° |
| 2026-05-05 14:39 | 55.21822 | 16.19514 | 36941 ft | 474 kts | 44° |
| 2026-05-05 14:40 | 55.26400 | 16.27829 | 36960 ft | 474 kts | 43° |
| 2026-05-05 14:40 | 55.30207 | 16.34755 | 36952 ft | 474 kts | 44° |
| 2026-05-05 14:41 | 55.34782 | 16.43117 | 36944 ft | 474 kts | 44° |
| 2026-05-05 14:41 | 55.39346 | 16.51488 | 36941 ft | 474 kts | 44° |
| 2026-05-05 14:42 | 55.43909 | 16.59873 | 36937 ft | 474 kts | 44° |
| 2026-05-05 14:42 | 55.48462 | 16.68280 | 36948 ft | 474 kts | 44° |
| 2026-05-05 14:43 | 55.53006 | 16.76707 | 36939 ft | 474 kts | 44° |
| 2026-05-05 14:43 | 55.57534 | 16.85138 | 36933 ft | 473 kts | 44° |
| 2026-05-05 14:44 | 55.62034 | 16.93548 | 36931 ft | 473 kts | 44° |
| 2026-05-05 14:44 | 55.66552 | 17.02012 | 36946 ft | 473 kts | 44° |
| 2026-05-05 14:45 | 55.71072 | 17.10505 | 36935 ft | 474 kts | 44° |
| 2026-05-05 14:45 | 55.75588 | 17.19033 | 36921 ft | 474 kts | 44° |
| 2026-05-05 14:46 | 55.80100 | 17.27559 | 36920 ft | 474 kts | 44° |
| 2026-05-05 14:46 | 55.84702 | 17.35944 | 36917 ft | 473 kts | 42° |
| 2026-05-05 14:47 | 55.89339 | 17.44255 | 36934 ft | 473 kts | 43° |
| 2026-05-05 14:47 | 55.93953 | 17.52636 | 36925 ft | 473 kts | 43° |
| 2026-05-05 14:48 | 55.98534 | 17.61067 | 36913 ft | 473 kts | 43° |
| 2026-05-05 14:48 | 56.03109 | 17.69513 | 36909 ft | 473 kts | 43° |
| 2026-05-05 14:49 | 56.07684 | 17.77963 | 36904 ft | 473 kts | 43° |
| 2026-05-05 14:49 | 56.12250 | 17.86442 | 36923 ft | 473 kts | 43° |
| 2026-05-05 14:50 | 56.16599 | 17.95272 | 36916 ft | 475 kts | 54° |
| 2026-05-05 14:50 | 56.19492 | 18.05916 | 36893 ft | 477 kts | 73° |
| 2026-05-05 14:51 | 56.21214 | 18.17342 | 36892 ft | 477 kts | 75° |
| 2026-05-05 14:51 | 56.22936 | 18.28881 | 36894 ft | 478 kts | 76° |
| 2026-05-05 14:52 | 56.24416 | 18.40536 | 36896 ft | 478 kts | 79° |
| 2026-05-05 14:52 | 56.25662 | 18.52283 | 36897 ft | 479 kts | 80° |
| 2026-05-05 14:53 | 56.26910 | 18.64064 | 36898 ft | 479 kts | 80° |
| 2026-05-05 14:53 | 56.28225 | 18.75843 | 36895 ft | 480 kts | 79° |
| 2026-05-05 14:54 | 56.29544 | 18.87635 | 36906 ft | 481 kts | 78° |
| 2026-05-05 14:54 | 56.31542 | 18.99113 | 36908 ft | 481 kts | 71° |
| 2026-05-05 14:55 | 56.33714 | 19.10535 | 36909 ft | 482 kts | 71° |
| 2026-05-05 14:55 | 56.35865 | 19.21977 | 36916 ft | 482 kts | 72° |
| 2026-05-05 14:56 | 56.37797 | 19.33549 | 36902 ft | 482 kts | 75° |
| 2026-05-05 14:56 | 56.39564 | 19.45149 | 36929 ft | 483 kts | 75° |
| 2026-05-05 14:57 | 56.41363 | 19.56851 | 36928 ft | 483 kts | 75° |
| 2026-05-05 14:57 | 56.43198 | 19.68528 | 36928 ft | 483 kts | 75° |
| 2026-05-05 14:58 | 56.45032 | 19.80230 | 36922 ft | 483 kts | 75° |
| 2026-05-05 14:58 | 56.46850 | 19.91947 | 36921 ft | 483 kts | 75° |
| 2026-05-05 14:59 | 56.48651 | 20.03657 | 36898 ft | 483 kts | 75° |
| 2026-05-05 14:59 | 56.50440 | 20.15384 | 36896 ft | 484 kts | 75° |
| 2026-05-05 15:00 | 56.51922 | 20.25152 | 36897 ft | 484 kts | 75° |
| 2026-05-05 15:00 | 56.53996 | 20.38910 | 36925 ft | 484 kts | 75° |
| 2026-05-05 15:01 | 56.55762 | 20.50711 | 36830 ft | 489 kts | 75° |
| 2026-05-05 15:01 | 56.56649 | 20.56687 | 36565 ft | 491 kts | 75° |
| 2026-05-05 15:01 | 56.57535 | 20.62671 | 36308 ft | 491 kts | 76° |
| 2026-05-05 15:02 | 56.58403 | 20.68567 | 36056 ft | 489 kts | 76° |
| 2026-05-05 15:02 | 56.59279 | 20.74521 | 35588 ft | 487 kts | 76° |
| 2026-05-05 15:02 | 56.60149 | 20.80453 | 35004 ft | 486 kts | 76° |
| 2026-05-05 15:02 | 56.61016 | 20.86383 | 34423 ft | 486 kts | 77° |
| 2026-05-05 15:03 | 56.61879 | 20.92321 | 33815 ft | 486 kts | 77° |
| 2026-05-05 15:03 | 56.62735 | 20.98254 | 33179 ft | 485 kts | 77° |
| 2026-05-05 15:03 | 56.63586 | 21.04168 | 32606 ft | 483 kts | 77° |
| 2026-05-05 15:03 | 56.64434 | 21.10063 | 32025 ft | 481 kts | 77° |
| 2026-05-05 15:04 | 56.65275 | 21.15936 | 31449 ft | 480 kts | 78° |
| 2026-05-05 15:04 | 56.66112 | 21.21795 | 30910 ft | 478 kts | 78° |
| 2026-05-05 15:04 | 56.66944 | 21.27654 | 30309 ft | 478 kts | 78° |
| 2026-05-05 15:04 | 56.67771 | 21.33506 | 29746 ft | 477 kts | 78° |
| 2026-05-05 15:05 | 56.69412 | 21.45114 | 28651 ft | 470 kts | 77° |
| 2026-05-05 15:05 | 56.70217 | 21.50842 | 28152 ft | 466 kts | 77° |
| 2026-05-05 15:05 | 56.71012 | 21.56542 | 27629 ft | 463 kts | 77° |
| 2026-05-05 15:06 | 56.71799 | 21.62199 | 27107 ft | 460 kts | 77° |
| 2026-05-05 15:06 | 56.72570 | 21.67778 | 26579 ft | 458 kts | 78° |
| 2026-05-05 15:06 | 56.73351 | 21.73474 | 26016 ft | 457 kts | 78° |
| 2026-05-05 15:06 | 56.74118 | 21.79082 | 25559 ft | 454 kts | 78° |
| 2026-05-05 15:07 | 56.74879 | 21.84647 | 24974 ft | 454 kts | 78° |
| 2026-05-05 15:07 | 56.75626 | 21.90121 | 24659 ft | 447 kts | 78° |
| 2026-05-05 15:07 | 56.76372 | 21.95599 | 24202 ft | 444 kts | 78° |
| 2026-05-05 15:07 | 56.77112 | 22.01050 | 23726 ft | 440 kts | 78° |
| 2026-05-05 15:08 | 56.77840 | 22.06429 | 22877 ft | 434 kts | 78° |
| 2026-05-05 15:08 | 56.78555 | 22.11731 | 22043 ft | 428 kts | 78° |
| 2026-05-05 15:08 | 56.79255 | 22.16933 | 21455 ft | 415 kts | 77° |
| 2026-05-05 15:08 | 56.79890 | 22.21677 | 20992 ft | 403 kts | 78° |
| 2026-05-05 15:14 | 56.80497 | 22.26284 | 20525 ft | 398 kts | 78° |
| 2026-05-05 15:14 | 56.81145 | 22.31211 | 20014 ft | 399 kts | 78° |
| 2026-05-05 15:14 | 56.81794 | 22.36147 | 19516 ft | 400 kts | 78° |
| 2026-05-05 15:14 | 56.82444 | 22.41083 | 19016 ft | 400 kts | 78° |
| 2026-05-05 15:15 | 56.83095 | 22.46031 | 18523 ft | 401 kts | 78° |
| 2026-05-05 15:15 | 56.83747 | 22.50992 | 17998 ft | 402 kts | 78° |
| 2026-05-05 15:15 | 56.84392 | 22.55925 | 17599 ft | 397 kts | 78° |
| 2026-05-05 15:15 | 56.85033 | 22.60836 | 17162 ft | 395 kts | 78° |
| 2026-05-05 15:16 | 56.85666 | 22.65681 | 16774 ft | 390 kts | 78° |
| 2026-05-05 15:16 | 56.86291 | 22.70500 | 16334 ft | 389 kts | 78° |
| 2026-05-05 15:16 | 56.86907 | 22.75272 | 15856 ft | 383 kts | 78° |
| 2026-05-05 15:16 | 56.87504 | 22.79926 | 15164 ft | 377 kts | 78° |
| 2026-05-05 15:17 | 56.88046 | 22.84530 | 14677 ft | 364 kts | 85° |
| 2026-05-05 15:17 | 56.88001 | 22.89025 | 14234 ft | 345 kts | 104° |
| 2026-05-05 15:17 | 56.87362 | 22.93124 | 13844 ft | 329 kts | 113° |
| 2026-05-05 15:17 | 56.86652 | 22.97035 | 13427 ft | 319 kts | 113° |
| 2026-05-05 15:18 | 56.85963 | 23.00812 | 13045 ft | 310 kts | 113° |
| 2026-05-05 15:18 | 56.85278 | 23.04550 | 12664 ft | 310 kts | 113° |
| 2026-05-05 15:18 | 56.84586 | 23.08289 | 12283 ft | 311 kts | 113° |
| 2026-05-05 15:18 | 56.83891 | 23.12035 | 11886 ft | 312 kts | 113° |
| 2026-05-05 15:19 | 56.83195 | 23.15788 | 11499 ft | 312 kts | 113° |
| 2026-05-05 15:19 | 56.82496 | 23.19548 | 11101 ft | 313 kts | 113° |
| 2026-05-05 15:19 | 56.81795 | 23.23317 | 10702 ft | 314 kts | 113° |
| 2026-05-05 15:19 | 56.81090 | 23.27098 | 10303 ft | 315 kts | 112° |
| 2026-05-05 15:20 | 56.80381 | 23.30890 | 9864 ft | 316 kts | 112° |
| 2026-05-05 15:20 | 56.79668 | 23.34692 | 9412 ft | 317 kts | 112° |
| 2026-05-05 15:20 | 56.78954 | 23.38492 | 9014 ft | 315 kts | 112° |
| 2026-05-05 15:20 | 56.78247 | 23.42254 | 8589 ft | 314 kts | 112° |
| 2026-05-05 15:21 | 56.77556 | 23.45942 | 8439 ft | 301 kts | 112° |
| 2026-05-05 15:21 | 56.76906 | 23.49417 | 8285 ft | 279 kts | 112° |
| 2026-05-05 15:21 | 56.76289 | 23.52699 | 7883 ft | 269 kts | 112° |
| 2026-05-05 15:21 | 56.75684 | 23.55889 | 7386 ft | 264 kts | 112° |
| 2026-05-05 15:22 | 56.75086 | 23.59036 | 6883 ft | 261 kts | 112° |
| 2026-05-05 15:22 | 56.74499 | 23.62132 | 6388 ft | 256 kts | 112° |
| 2026-05-05 15:22 | 56.73919 | 23.65178 | 5868 ft | 253 kts | 112° |
| 2026-05-05 15:22 | 56.73344 | 23.68192 | 5355 ft | 250 kts | 112° |
| 2026-05-05 15:23 | 56.72776 | 23.71170 | 4926 ft | 248 kts | 111° |
| 2026-05-05 15:23 | 56.72208 | 23.74138 | 4569 ft | 247 kts | 112° |
| 2026-05-05 15:23 | 56.71653 | 23.77044 | 4403 ft | 238 kts | 112° |
| 2026-05-05 15:23 | 56.71124 | 23.79823 | 4299 ft | 227 kts | 112° |
| 2026-05-05 15:24 | 56.70707 | 23.82523 | 4192 ft | 219 kts | 93° |
| 2026-05-05 15:24 | 56.71023 | 23.85091 | 4117 ft | 207 kts | 55° |
| 2026-05-05 15:24 | 56.71853 | 23.87107 | 4036 ft | 194 kts | 54° |
| 2026-05-05 15:24 | 56.72482 | 23.89117 | 3958 ft | 173 kts | 61° |
| 2026-05-05 15:25 | 56.72998 | 23.90979 | 3866 ft | 158 kts | 60° |
| 2026-05-05 15:25 | 56.73633 | 23.92572 | 3736 ft | 154 kts | 41° |
| 2026-05-05 15:25 | 56.74480 | 23.93692 | 3532 ft | 149 kts | 22° |
| 2026-05-05 15:25 | 56.75457 | 23.94165 | 3255 ft | 146 kts | 3° |
| 2026-05-05 15:26 | 56.76480 | 23.94428 | 2949 ft | 149 kts | 2° |
| 2026-05-05 15:26 | 56.77503 | 23.94642 | 2696 ft | 146 kts | 0° |
| 2026-05-05 15:26 | 56.78505 | 23.94826 | 2486 ft | 143 kts | 0° |
| 2026-05-05 15:26 | 56.79482 | 23.94995 | 2289 ft | 140 kts | 359° |
| 2026-05-05 15:27 | 56.80442 | 23.95157 | 2104 ft | 137 kts | 0° |
| 2026-05-05 15:27 | 56.81387 | 23.95314 | 1905 ft | 135 kts | 359° |
| 2026-05-05 15:27 | 56.82315 | 23.95466 | 1729 ft | 133 kts | 359° |
| 2026-05-05 15:27 | 56.83241 | 23.95624 | 1546 ft | 133 kts | 1° |
| 2026-05-05 15:28 | 56.84157 | 23.95772 | 1363 ft | 132 kts | 2° |
| 2026-05-05 15:28 | 56.85077 | 23.95922 | 1186 ft | 132 kts | 2° |
| 2026-05-05 15:28 | 56.85991 | 23.96069 | 1005 ft | 131 kts | 2° |
| 2026-05-05 15:28 | 56.86588 | 23.96155 | 896 ft | 130 kts | 3° |
| 2026-05-05 15:29 | 56.87468 | 23.96285 | 744 ft | 125 kts | 3° |
| 2026-05-05 15:29 | 56.88321 | 23.96447 | 550 ft | 121 kts | 4° |
| 2026-05-05 15:29 | 56.89172 | 23.96578 | 389 ft | 123 kts | 5° |
| 2026-05-05 15:29 | 56.90018 | 23.96729 | 212 ft | 122 kts | 4° |
| 2026-05-05 15:30 | 56.90864 | 23.96865 | 51 ft | 121 kts | 5° |
| 2026-05-05 15:30 | 56.91597 | 23.96987 | 45 ft | 88 kts | 5° |
| 2026-05-05 15:30 | 56.92088 | 23.97066 | 45 ft | 53 kts | 5° |
| 2026-05-05 15:30 | 56.92381 | 23.97153 | 44 ft | 37 kts | 22° |
| 2026-05-05 15:31 | 56.92536 | 23.97344 | 43 ft | 21 kts | 34° |
| 2026-05-05 15:31 | 56.92603 | 23.97436 | 42 ft | 9 kts | 46° |
| 2026-05-05 15:31 | 56.92601 | 23.97538 | 44 ft | 8 kts | 132° |
| 2026-05-05 15:31 | 56.92550 | 23.97541 | 44 ft | 7 kts | 186° |
| 2026-05-05 15:32 | 56.92504 | 23.97533 | 44 ft | 6 kts | 185° |
| 2026-05-05 15:32 | 56.92462 | 23.97526 | 42 ft | 6 kts | 185° |
| 2026-05-05 15:32 | 56.92425 | 23.97520 | 44 ft | 5 kts | 185° |
| 2026-05-05 15:32 | 56.92393 | 23.97519 | 44 ft | 5 kts | 170° |
| 2026-05-05 15:33 | 56.92367 | 23.97594 | 41 ft | 8 kts | 97° |
| 2026-05-05 15:33 | 56.92353 | 23.97679 | 44 ft | 6 kts | 138° |
| 2026-05-05 15:33 | 56.92315 | 23.97680 | 44 ft | 5 kts | 186° |
| 2026-05-05 15:33 | 56.92290 | 23.97676 | 44 ft | 1 kts | 185° |